createdAt,value
2019-05-17T00:00:53.391Z,94825.5
2019-05-17T00:02:00.301Z,94826.2
2019-05-17T00:03:02.719Z,94825.2
2019-05-17T00:05:11.082Z,94820.8
2019-05-17T00:06:13.515Z,94817.9
2019-05-17T00:07:18.170Z,94822.7
2019-05-17T00:09:27.388Z,94816.3
2019-05-17T00:10:29.526Z,94815.9
2019-05-17T00:11:31.692Z,94817.1
2019-05-17T00:12:36.428Z,94817.8
2019-05-17T00:13:40.555Z,94817.6
2019-05-17T00:14:42.982Z,94811.4
2019-05-17T00:16:51.037Z,94809.6
2019-05-17T00:17:53.468Z,94812
2019-05-17T00:20:00.550Z,94805
2019-05-17T00:21:02.700Z,94805.8
2019-05-17T00:22:07.112Z,94805.6
2019-05-17T00:23:11.279Z,94803.5
2019-05-17T00:24:13.407Z,94804.8
2019-05-17T00:25:18.064Z,94798.8
2019-05-17T00:26:20.506Z,94803
2019-05-17T00:27:22.363Z,94802.1
2019-05-17T00:28:26.725Z,94803.2
2019-05-17T00:29:30.946Z,94797.1
2019-05-17T00:30:32.822Z,94794.4
2019-05-17T00:31:36.796Z,94795.6
2019-05-17T00:32:39.076Z,94793.8
2019-05-17T00:33:41.224Z,94785.1
2019-05-17T00:34:44.258Z,94786.1
2019-05-17T00:35:48.957Z,94785.8
2019-05-17T00:36:51.582Z,94782.8
2019-05-17T00:37:53.463Z,94783.4
2019-05-17T00:40:00.876Z,94780
2019-05-17T00:41:03.306Z,94774
2019-05-17T00:43:10.190Z,94779.5
2019-05-17T00:44:12.633Z,94779.3
2019-05-17T00:45:17.287Z,94776.2
2019-05-17T00:46:21.486Z,94777
2019-05-17T00:47:23.639Z,94776.3
2019-05-17T00:48:30.533Z,94773
2019-05-17T00:49:32.704Z,94772.3
2019-05-17T00:51:41.075Z,94768.6
2019-05-17T00:52:43.216Z,94766.6
2019-05-17T00:53:47.721Z,94762.7
2019-05-17T00:54:50.164Z,94766.3
2019-05-17T00:55:52.591Z,94768.6
2019-05-17T00:58:00.636Z,94766.6
2019-05-17T00:59:03.067Z,94762.8
2019-05-17T01:00:05.221Z,94767.1
2019-05-17T01:01:09.848Z,94765.6
2019-05-17T01:02:12.020Z,94760.7
2019-05-17T01:04:20.396Z,94760
2019-05-17T01:05:22.819Z,94759.3
2019-05-17T01:06:27.359Z,94755.2
2019-05-17T01:07:31.400Z,94758
2019-05-17T01:08:33.819Z,94755.6
2019-05-17T01:09:38.177Z,94750.6
2019-05-17T01:10:40.607Z,94752.6
2019-05-17T01:11:42.745Z,94749.2
2019-05-17T01:12:45.173Z,94752.8
2019-05-17T01:13:51.801Z,94752.9
2019-05-17T01:14:54.227Z,94750.3
2019-05-17T01:15:58.103Z,94750.8
2019-05-17T01:17:00.534Z,94750.3
2019-05-17T01:18:02.965Z,94744.6
2019-05-17T01:19:07.261Z,94745.8
2019-05-17T01:20:09.691Z,94743.9
2019-05-17T01:21:11.843Z,94747.6
2019-05-17T01:22:14.283Z,94743.3
2019-05-17T01:23:20.929Z,94744.9
2019-05-17T01:24:23.354Z,94744.6
2019-05-17T01:26:31.244Z,94742.8
2019-05-17T01:27:33.414Z,94743.6
2019-05-17T01:28:37.876Z,94745.1
2019-05-17T01:29:40.299Z,94744.7
2019-05-17T01:30:42.733Z,94742.4
2019-05-17T01:32:50.085Z,94739.9
2019-05-17T01:33:52.223Z,94736.8
2019-05-17T01:34:56.298Z,94735.1
2019-05-17T01:36:00.239Z,94736.9
2019-05-17T01:37:02.663Z,94732.7
2019-05-17T01:41:21.493Z,94734.7
2019-05-17T01:42:23.649Z,94733.8
2019-05-17T01:43:30.555Z,94731.2
2019-05-17T01:44:32.696Z,94734.2
2019-05-17T01:46:40.469Z,94736.6
2019-05-17T01:47:42.907Z,94734.8
2019-05-17T01:49:51.018Z,94738.5
2019-05-17T01:50:53.173Z,94731.6
2019-05-17T01:53:00.428Z,94734.1
2019-05-17T01:54:02.295Z,94730
2019-05-17T01:55:03.882Z,94732.2
2019-05-17T01:56:08.549Z,94728
2019-05-17T01:57:10.699Z,94729.3
2019-05-17T01:58:12.857Z,94726
2019-05-17T02:00:21.233Z,94726.5
2019-05-17T02:01:23.663Z,94724.1
2019-05-17T02:03:31.073Z,94721.1
2019-05-17T02:04:33.513Z,94722.4
2019-05-17T02:06:40.697Z,94717.7
2019-05-17T02:07:42.859Z,94720
2019-05-17T02:09:51.239Z,94717.6
2019-05-17T02:10:53.366Z,94715.9
2019-05-17T02:11:57.605Z,94712.9
2019-05-17T02:13:00.043Z,94715.3
2019-05-17T02:14:01.906Z,94714.9
2019-05-17T02:15:04.109Z,94714.7
2019-05-17T02:16:11.015Z,94714.5
2019-05-17T02:17:13.453Z,94716.2
2019-05-17T02:18:17.797Z,94716.9
2019-05-17T02:19:20.219Z,94711.8
2019-05-17T02:20:22.653Z,94711
2019-05-17T02:21:27.298Z,94710.2
2019-05-17T02:22:31.233Z,94707.3
2019-05-17T02:23:33.667Z,94706.6
2019-05-17T02:25:41.094Z,94708.1
2019-05-17T02:26:43.515Z,94703.8
2019-05-17T02:28:56.351Z,94703.7
2019-05-17T02:29:58.215Z,94706.3
2019-05-17T02:32:06.355Z,94703.3
2019-05-17T02:33:08.775Z,94703.5
2019-05-17T02:34:15.563Z,94707
2019-05-17T02:35:17.986Z,94700.4
2019-05-17T02:37:25.878Z,94703.5
2019-05-17T02:38:28.312Z,94703
2019-05-17T02:40:35.927Z,94698.9
2019-05-17T02:41:38.087Z,94701.4
2019-05-17T02:43:45.515Z,94702.4
2019-05-17T02:44:47.946Z,94702.2
2019-05-17T02:46:55.841Z,94698.8
2019-05-17T02:47:58.021Z,94696.4
2019-05-17T02:50:07.264Z,94695.2
2019-05-17T02:51:12.750Z,94692.8
2019-05-17T02:52:15.847Z,94694.4
2019-05-17T02:53:18.305Z,94699.8
2019-05-17T02:55:26.688Z,94700.6
2019-05-17T02:56:32.525Z,94697.1
2019-05-17T02:57:36.329Z,94696.3
2019-05-17T02:58:38.476Z,94695.2
2019-05-17T03:00:46.377Z,94696.3
2019-05-17T03:01:48.507Z,94693
2019-05-17T03:03:56.379Z,94688.2
2019-05-17T03:04:58.855Z,94692
2019-05-17T03:07:05.971Z,94688.2
2019-05-17T03:08:08.404Z,94687.9
2019-05-17T03:12:25.782Z,94690.9
2019-05-17T03:13:28.206Z,94686.7
2019-05-17T03:15:35.606Z,94684.1
2019-05-17T03:16:37.777Z,94682.4
2019-05-17T03:18:45.681Z,94685.5
2019-05-17T03:19:48.100Z,94678.4
2019-05-17T03:21:55.529Z,94683.8
2019-05-17T03:22:57.962Z,94680.7
2019-05-17T03:25:05.635Z,94680
2019-05-17T03:26:07.789Z,94676.2
2019-05-17T03:27:13.058Z,94681.4
2019-05-17T03:28:15.812Z,94678.5
2019-05-17T03:29:17.983Z,94682.5
2019-05-17T03:33:38.174Z,94676.5
2019-05-17T03:35:47.697Z,94674.2
2019-05-17T03:36:55.713Z,94675
2019-05-17T03:37:56.035Z,94675.9
2019-05-17T03:38:58.476Z,94672.3
2019-05-17T03:43:16.063Z,94673.3
2019-05-17T03:44:18.496Z,94672
2019-05-17T03:46:25.919Z,94671.2
2019-05-17T03:47:27.806Z,94671.9
2019-05-17T03:51:47.044Z,94675
2019-05-17T03:52:49.474Z,94666.7
2019-05-17T03:53:56.375Z,94671.2
2019-05-17T03:54:58.257Z,94670.7
2019-05-17T03:57:05.669Z,94663.9
2019-05-17T03:58:08.092Z,94662.1
2019-05-17T04:00:16.027Z,94655.8
2019-05-17T04:01:18.194Z,94660.8
2019-05-17T04:03:26.077Z,94660.7
2019-05-17T04:04:28.242Z,94665
2019-05-17T04:06:36.125Z,94656.6
2019-05-17T04:07:38.552Z,94662.7
2019-05-17T04:09:45.976Z,94661.6
2019-05-17T04:10:48.615Z,94662.4
2019-05-17T04:12:58.504Z,94663.7
2019-05-17T04:15:05.920Z,94662.2
2019-05-17T04:17:14.765Z,94668.6
2019-05-17T04:18:17.195Z,94665.5
2019-05-17T04:19:22.742Z,94670.1
2019-05-17T04:20:25.518Z,94668.1
2019-05-17T04:21:27.391Z,94666.9
2019-05-17T04:22:32.818Z,94666.9
2019-05-17T04:23:35.686Z,94668
2019-05-17T04:24:37.842Z,94667.4
2019-05-17T04:26:46.498Z,94670.4
2019-05-17T04:27:48.662Z,94667.1
2019-05-17T04:29:55.799Z,94668.3
2019-05-17T04:30:58.216Z,94671.3
2019-05-17T04:33:06.324Z,94668.5
2019-05-17T04:34:08.755Z,94665.8
2019-05-17T04:36:16.547Z,94669.2
2019-05-17T04:37:18.976Z,94669.1
2019-05-17T04:38:25.872Z,94671
2019-05-17T04:39:28.037Z,94670
2019-05-17T04:40:33.541Z,94669.4
2019-05-17T04:43:46.772Z,94665
2019-05-17T04:44:52.417Z,94667.9
2019-05-17T04:45:55.540Z,94668.2
2019-05-17T04:46:57.417Z,94669.5
2019-05-17T04:47:59.730Z,94671.8
2019-05-17T04:49:06.358Z,94668.5
2019-05-17T04:50:08.523Z,94670.2
2019-05-17T04:52:15.941Z,94665.9
2019-05-17T04:53:18.359Z,94666.3
2019-05-17T04:55:25.511Z,94669.5
2019-05-17T04:56:27.667Z,94662.1
2019-05-17T04:58:35.481Z,94662.4
2019-05-17T04:59:37.652Z,94661.9
2019-05-17T05:01:45.508Z,94660.7
2019-05-17T05:02:47.963Z,94661.9
2019-05-17T05:04:55.606Z,94661.2
2019-05-17T05:05:58.048Z,94660.8
2019-05-17T05:08:06.432Z,94661.9
2019-05-17T05:09:08.756Z,94660.4
2019-05-17T05:10:15.971Z,94661.2
2019-05-17T05:11:18.433Z,94666.1
2019-05-17T05:13:26.330Z,94658.9
2019-05-17T05:14:28.744Z,94662.5
2019-05-17T05:16:36.143Z,94659.8
2019-05-17T05:17:38.306Z,94664.1
2019-05-17T05:19:45.714Z,94662.2
2019-05-17T05:20:47.602Z,94656
2019-05-17T05:22:54.452Z,94659.5
2019-05-17T05:23:56.872Z,94665.2
2019-05-17T05:24:59.047Z,94660.5
2019-05-17T05:26:05.696Z,94664.5
2019-05-17T05:27:07.870Z,94659.3
2019-05-17T05:28:12.425Z,94658.4
2019-05-17T05:29:14.585Z,94658.3
2019-05-17T05:30:17.012Z,94657.4
2019-05-17T05:31:19.437Z,94655.3
2019-05-17T05:32:23.556Z,94656.3
2019-05-17T05:33:25.981Z,94650.2
2019-05-17T05:34:28.156Z,94649.9
2019-05-17T05:35:32.477Z,94654.3
2019-05-17T05:36:34.915Z,94648.5
2019-05-17T05:37:37.542Z,94648.5
2019-05-17T05:38:39.433Z,94654.3
2019-05-17T05:39:43.883Z,94652.9
2019-05-17T05:40:46.303Z,94650.9
2019-05-17T05:41:48.473Z,94652.1
2019-05-17T05:42:53.187Z,94650.8
2019-05-17T05:43:55.600Z,94655.7
2019-05-17T05:44:57.476Z,94654.6
2019-05-17T05:45:59.647Z,94654.2
2019-05-17T05:47:06.544Z,94654
2019-05-17T05:48:08.263Z,94655.9
2019-05-17T05:51:22.930Z,94655.6
2019-05-17T05:52:25.108Z,94651.5
2019-05-17T05:53:27.275Z,94651.8
2019-05-17T05:54:31.837Z,94648.1
2019-05-17T05:55:35.874Z,94652.3
2019-05-17T05:56:37.474Z,94648.4
2019-05-17T05:58:45.300Z,94644.9
2019-05-17T05:59:47.435Z,94643.9
2019-05-17T06:00:49.867Z,94645.6
2019-05-17T06:01:56.773Z,94645.2
2019-05-17T06:02:58.955Z,94639.4
2019-05-17T06:04:03.623Z,94637.9
2019-05-17T06:05:06.056Z,94637.7
2019-05-17T06:06:08.471Z,94638
2019-05-17T06:07:12.701Z,94637.7
2019-05-17T06:08:16.251Z,94640.5
2019-05-17T06:09:18.408Z,94639.4
2019-05-17T06:10:22.776Z,94638.3
2019-05-17T06:11:24.924Z,94643
2019-05-17T06:13:33.553Z,94636.8
2019-05-17T06:14:35.713Z,94640.2
2019-05-17T06:15:38.154Z,94641.3
2019-05-17T06:17:46.857Z,94645.3
2019-05-17T06:18:52.130Z,94646.3
2019-05-17T06:19:54.261Z,94645.5
2019-05-17T06:20:56.702Z,94648.9
2019-05-17T06:21:59.342Z,94649.8
2019-05-17T06:23:03.950Z,94647.2
2019-05-17T06:24:06.384Z,94642.9
2019-05-17T06:25:08.544Z,94643.8
2019-05-17T06:27:15.950Z,94643.2
2019-05-17T06:28:18.121Z,94642
2019-05-17T06:30:26.266Z,94640.3
2019-05-17T06:31:28.424Z,94637.7
2019-05-17T06:33:36.264Z,94644.1
2019-05-17T06:34:38.712Z,94641.8
2019-05-17T06:36:45.876Z,94641.7
2019-05-17T06:37:48.056Z,94639.5
2019-05-17T06:38:52.616Z,94642
2019-05-17T06:39:56.626Z,94642.9
2019-05-17T06:41:01.447Z,94643.7
2019-05-17T06:42:05.472Z,94640.3
2019-05-17T06:43:07.076Z,94640.2
2019-05-17T06:44:11.995Z,94642.7
2019-05-17T06:45:15.930Z,94641.2
2019-05-17T06:46:17.996Z,94636.6
2019-05-17T06:47:22.387Z,94638.2
2019-05-17T06:48:26.568Z,94633.5
2019-05-17T06:49:28.707Z,94634.3
2019-05-17T06:51:36.515Z,94627.9
2019-05-17T06:52:38.708Z,94634.2
2019-05-17T06:53:43.350Z,94631.8
2019-05-17T06:54:47.290Z,94626.1
2019-05-17T06:55:50.147Z,94628.3
2019-05-17T06:56:53.588Z,94626
2019-05-17T06:57:56.045Z,94627.6
2019-05-17T06:58:58.482Z,94625.6
2019-05-17T07:01:05.897Z,94624.7
2019-05-17T07:02:10.356Z,94626.9
2019-05-17T07:03:14.465Z,94630.7
2019-05-17T07:04:19.215Z,94629.2
2019-05-17T07:05:23.050Z,94629.7
2019-05-17T07:06:25.485Z,94631.9
2019-05-17T07:07:30.118Z,94628.1
2019-05-17T07:08:34.179Z,94627.4
2019-05-17T07:09:39.954Z,94630.4
2019-05-17T07:10:43.722Z,94630.1
2019-05-17T07:11:46.169Z,94627.1
2019-05-17T07:13:53.569Z,94627.3
2019-05-17T07:16:01.655Z,94628.9
2019-05-17T07:17:03.838Z,94632.1
2019-05-17T07:18:05.996Z,94632.1
2019-05-17T07:20:14.095Z,94628.8
2019-05-17T07:21:16.256Z,94628.5
2019-05-17T07:22:20.985Z,94623.9
2019-05-17T07:23:25.147Z,94626.6
2019-05-17T07:24:29.904Z,94620.6
2019-05-17T07:25:34.002Z,94620.7
2019-05-17T07:26:35.628Z,94619.5
2019-05-17T07:28:43.043Z,94613.9
2019-05-17T07:29:45.220Z,94611.3
2019-05-17T07:30:47.381Z,94613.5
2019-05-17T07:31:54.022Z,94615.7
2019-05-17T07:32:56.178Z,94614.5
2019-05-17T07:34:00.774Z,94611.3
2019-05-17T07:35:03.302Z,94605.1
2019-05-17T07:36:05.747Z,94603.7
2019-05-17T07:38:14.113Z,94604.1
2019-05-17T07:39:16.011Z,94604.3
2019-05-17T07:41:23.354Z,94604.1
2019-05-17T07:42:25.791Z,94599.7
2019-05-17T07:44:34.308Z,94599.1
2019-05-17T07:45:36.456Z,94600.3
2019-05-17T07:46:41.077Z,94597
2019-05-17T07:47:43.243Z,94593.5
2019-05-17T07:48:45.673Z,94595.8
2019-05-17T07:50:53.571Z,94594.4
2019-05-17T07:51:56.001Z,94589.8
2019-05-17T07:53:00.483Z,94593.5
2019-05-17T07:54:03.024Z,94589
2019-05-17T07:55:05.480Z,94587.7
2019-05-17T07:56:07.374Z,94585.4
2019-05-17T07:57:14.286Z,94586.2
2019-05-17T07:58:16.461Z,94588
2019-05-17T08:00:23.908Z,94584.4
2019-05-17T08:01:26.113Z,94587
2019-05-17T08:03:34.503Z,94588.8
2019-05-17T08:04:36.963Z,94588
2019-05-17T08:06:44.386Z,94583.6
2019-05-17T08:07:46.833Z,94580
2019-05-17T08:09:54.242Z,94585.1
2019-05-17T08:10:56.385Z,94574.2
2019-05-17T08:13:03.803Z,94576.4
2019-05-17T08:14:06.245Z,94574.7
2019-05-17T08:16:14.357Z,94573.5
2019-05-17T08:17:16.795Z,94570.1
2019-05-17T08:18:23.695Z,94567.5
2019-05-17T08:19:26.134Z,94566
2019-05-17T08:20:30.890Z,94571
2019-05-17T08:21:33.020Z,94568.6
2019-05-17T08:22:35.447Z,94568.1
2019-05-17T08:23:39.827Z,94563.9
2019-05-17T08:24:43.468Z,94571.1
2019-05-17T08:26:51.466Z,94567.6
2019-05-17T08:27:53.921Z,94568.5
2019-05-17T08:28:56.074Z,94571.8
2019-05-17T08:31:03.504Z,94571.9
2019-05-17T08:32:05.653Z,94570.1
2019-05-17T08:33:10.421Z,94565.5
2019-05-17T08:34:14.867Z,94565.3
2019-05-17T08:35:19.686Z,94562.3
2019-05-17T08:36:23.738Z,94561.3
2019-05-17T08:37:26.176Z,94564.9
2019-05-17T08:39:34.546Z,94564.4
2019-05-17T08:40:36.981Z,94563.5
2019-05-17T08:41:43.604Z,94558.8
2019-05-17T08:42:46.041Z,94562.8
2019-05-17T08:43:51.076Z,94559
2019-05-17T08:44:54.038Z,94557.9
2019-05-17T08:47:01.927Z,94558.4
2019-05-17T08:48:04.437Z,94551.2
2019-05-17T08:49:07.094Z,94550.1
2019-05-17T08:50:13.210Z,94552.5
2019-05-17T08:51:15.185Z,94546.5
2019-05-17T08:52:17.352Z,94544
2019-05-17T08:53:21.925Z,94547.2
2019-05-17T08:54:24.096Z,94549.2
2019-05-17T08:55:26.522Z,94548.2
2019-05-17T08:56:33.085Z,94544.5
2019-05-17T08:57:35.246Z,94544.2
2019-05-17T08:58:37.404Z,94544.4
2019-05-17T08:59:44.312Z,94535.5
2019-05-17T09:00:46.754Z,94537.6
2019-05-17T09:02:53.892Z,94541.6
2019-05-17T09:03:56.331Z,94541.6
2019-05-17T09:06:04.562Z,94533.8
2019-05-17T09:07:08.902Z,94538.3
2019-05-17T09:08:13.167Z,94533.6
2019-05-17T09:09:15.603Z,94532.1
2019-05-17T09:10:20.517Z,94537.5
2019-05-17T09:11:24.100Z,94533.7
2019-05-17T09:12:26.532Z,94535.6
2019-05-17T09:13:31.205Z,94532.5
2019-05-17T09:14:33.856Z,94531
2019-05-17T09:15:36.012Z,94527.9
2019-05-17T09:17:43.646Z,94526.8
2019-05-17T09:18:46.105Z,94520.8
2019-05-17T09:19:50.471Z,94522.4
2019-05-17T09:20:54.495Z,94522.5
2019-05-17T09:21:56.994Z,94527
2019-05-17T09:23:03.902Z,94524.8
2019-05-17T09:24:06.060Z,94523.9
2019-05-17T09:26:14.212Z,94521.5
2019-05-17T09:27:16.663Z,94524.5
2019-05-17T09:28:23.553Z,94518.2
2019-05-17T09:29:25.705Z,94519.2
2019-05-17T09:30:27.858Z,94518.4
2019-05-17T09:31:34.760Z,94520.2
2019-05-17T09:32:36.935Z,94519.7
2019-05-17T09:34:44.072Z,94514.4
2019-05-17T09:35:46.228Z,94514.3
2019-05-17T09:37:53.636Z,94511
2019-05-17T09:38:56.086Z,94511.2
2019-05-17T09:41:03.982Z,94506.5
2019-05-17T09:42:06.432Z,94506.1
2019-05-17T09:46:23.801Z,94505
2019-05-17T09:47:26.226Z,94501.6
2019-05-17T09:49:34.116Z,94504.3
2019-05-17T09:50:36.554Z,94505
2019-05-17T09:51:43.176Z,94503
2019-05-17T09:52:45.337Z,94499.9
2019-05-17T09:54:53.226Z,94504.8
2019-05-17T09:55:55.658Z,94501.2
2019-05-17T09:57:00.278Z,94497.9
2019-05-17T09:58:04.527Z,94498.1
2019-05-17T09:59:06.963Z,94497.8
2019-05-17T10:00:13.870Z,94496.8
2019-05-17T10:01:16.036Z,94496.1
2019-05-17T10:03:25.604Z,94495.4
2019-05-17T10:04:27.792Z,94496.8
2019-05-17T10:05:33.204Z,94489
2019-05-17T10:06:35.347Z,94489.7
2019-05-17T10:07:39.957Z,94489.6
2019-05-17T10:08:43.925Z,94489.3
2019-05-17T10:09:46.084Z,94490
2019-05-17T10:11:53.476Z,94479.2
2019-05-17T10:12:55.906Z,94484.4
2019-05-17T10:15:02.751Z,94481.2
2019-05-17T10:16:04.920Z,94475.3
2019-05-17T10:17:09.682Z,94477
2019-05-17T10:18:13.508Z,94469.8
2019-05-17T10:19:15.924Z,94463.7
2019-05-17T10:23:34.448Z,94465.5
2019-05-17T10:25:41.958Z,94461.1
2019-05-17T10:26:44.112Z,94461.8
2019-05-17T10:27:45.977Z,94463.7
2019-05-17T10:28:48.402Z,94466.8
2019-05-17T10:29:55.304Z,94462.1
2019-05-17T10:30:57.492Z,94463.6
2019-05-17T10:32:04.406Z,94455
2019-05-17T10:33:09.548Z,94460.4
2019-05-17T10:34:13.276Z,94462
2019-05-17T10:35:15.415Z,94457.5
2019-05-17T10:37:23.506Z,94467.5
2019-05-17T10:38:25.946Z,94466.3
2019-05-17T10:40:33.834Z,94461.1
2019-05-17T10:41:36.269Z,94464.2
2019-05-17T10:42:40.999Z,94468.4
2019-05-17T10:43:43.156Z,94466.8
2019-05-17T10:45:50.560Z,94467.8
2019-05-17T10:46:52.688Z,94469.5
2019-05-17T10:47:54.860Z,94466.1
2019-05-17T10:48:56.462Z,94460.6
2019-05-17T10:49:58.898Z,94462.5
2019-05-17T10:51:01.950Z,94461.7
2019-05-17T10:52:04.372Z,94454.3
2019-05-17T10:53:06.534Z,94458.3
2019-05-17T10:54:13.428Z,94451.6
2019-05-17T10:55:15.862Z,94452.3
2019-05-17T10:57:23.465Z,94454.1
2019-05-17T10:58:25.893Z,94452.4
2019-05-17T10:59:28.052Z,94447.2
2019-05-17T11:00:31.857Z,94449.1
2019-05-17T11:01:33.991Z,94447.7
2019-05-17T11:02:35.844Z,94448.9
2019-05-17T11:04:43.745Z,94444.2
2019-05-17T11:05:46.175Z,94448.9
2019-05-17T11:07:54.066Z,94443.8
2019-05-17T11:08:56.504Z,94446.7
2019-05-17T11:10:03.475Z,94440.9
2019-05-17T11:11:06.511Z,94436.1
2019-05-17T11:12:14.565Z,94445.4
2019-05-17T11:13:17.178Z,94439.3
2019-05-17T11:14:19.712Z,94441.4
2019-05-17T11:15:22.147Z,94439.9
2019-05-17T11:16:24.568Z,94437.2
2019-05-17T11:17:26.988Z,94436.3
2019-05-17T11:18:29.370Z,94437.4
2019-05-17T11:19:31.518Z,94438.4
2019-05-17T11:20:33.956Z,94439.4
2019-05-17T11:21:36.388Z,94436.4
2019-05-17T11:22:39.635Z,94439.3
2019-05-17T11:23:42.949Z,94437.9
2019-05-17T11:24:45.496Z,94437.7
2019-05-17T11:25:48.295Z,94439.3
2019-05-17T11:26:50.450Z,94443.3
2019-05-17T11:27:52.882Z,94442.7
2019-05-17T11:28:55.427Z,94437.2
2019-05-17T11:29:57.849Z,94440.1
2019-05-17T11:30:59.733Z,94437.9
2019-05-17T11:32:02.173Z,94433.5
2019-05-17T11:33:04.611Z,94432
2019-05-17T11:34:06.506Z,94441
2019-05-17T11:35:08.985Z,94442
2019-05-17T11:36:11.414Z,94439.8
2019-05-17T11:37:13.639Z,94439.8
2019-05-17T11:38:15.879Z,94436.8
2019-05-17T11:39:18.308Z,94437.1
2019-05-17T11:40:20.474Z,94433.7
2019-05-17T11:41:23.566Z,94436.1
2019-05-17T11:42:25.704Z,94433.8
2019-05-17T11:43:27.870Z,94423.7
2019-05-17T11:44:30.308Z,94428
2019-05-17T11:45:34.960Z,94429
2019-05-17T11:46:38.118Z,94427.5
2019-05-17T11:47:40.543Z,94423.1
2019-05-17T11:48:42.891Z,94427.8
2019-05-17T11:49:45.103Z,94425.6
2019-05-17T11:50:48.144Z,94423.4
2019-05-17T11:51:50.576Z,94422.1
2019-05-17T11:52:52.162Z,94418.4
2019-05-17T11:53:54.584Z,94423.4
2019-05-17T11:54:56.518Z,94429
2019-05-17T11:55:58.952Z,94423.2
2019-05-17T11:57:01.090Z,94424.3
2019-05-17T11:58:03.546Z,94425.6
2019-05-17T11:59:05.685Z,94417.9
2019-05-17T12:00:08.114Z,94421
2019-05-17T12:01:10.560Z,94421.6
2019-05-17T12:02:12.736Z,94424.6
2019-05-17T12:03:15.246Z,94420.5
2019-05-17T12:04:17.676Z,94413.6
2019-05-17T12:05:20.136Z,94416
2019-05-17T12:06:22.341Z,94422.5
2019-05-17T12:07:24.766Z,94422.2
2019-05-17T12:08:27.191Z,94418.5
2019-05-17T12:10:34.717Z,94422.4
2019-05-17T12:11:36.653Z,94418.5
2019-05-17T12:12:39.080Z,94410.3
2019-05-17T12:14:46.236Z,94411.5
2019-05-17T12:15:48.675Z,94411.8
2019-05-17T12:16:51.088Z,94417.6
2019-05-17T12:17:53.534Z,94412.8
2019-05-17T12:18:55.116Z,94411.5
2019-05-17T12:19:57.537Z,94401
2019-05-17T12:20:59.728Z,94407.2
2019-05-17T12:22:02.778Z,94405.1
2019-05-17T12:23:05.387Z,94409.2
2019-05-17T12:24:07.535Z,94408.2
2019-05-17T12:25:09.700Z,94404
2019-05-17T12:26:12.124Z,94402.3
2019-05-17T12:27:14.547Z,94401.9
2019-05-17T12:28:17.173Z,94397.7
2019-05-17T12:29:19.323Z,94401.3
2019-05-17T12:30:51.076Z,94402.7
2019-05-17T12:31:54.015Z,94402.7
2019-05-17T12:32:56.479Z,94400.9
2019-05-17T12:33:58.636Z,94396
2019-05-17T12:35:00.872Z,94400
2019-05-17T12:36:03.334Z,94398.3
2019-05-17T12:37:05.775Z,94397.7
2019-05-17T12:38:08.204Z,94396.1
2019-05-17T12:39:10.348Z,94391.2
2019-05-17T12:40:12.242Z,94395
2019-05-17T12:41:14.864Z,94400.9
2019-05-17T12:42:16.998Z,94384.9
2019-05-17T12:43:19.444Z,94386.4
2019-05-17T12:44:22.316Z,94393.4
2019-05-17T12:45:25.007Z,94391.5
2019-05-17T12:46:27.437Z,94396
2019-05-17T12:47:29.857Z,94395.6
2019-05-17T12:48:32.282Z,94392.8
2019-05-17T12:49:34.438Z,94388.9
2019-05-17T12:50:37.057Z,94390.7
2019-05-17T12:51:39.209Z,94389.4
2019-05-17T12:52:41.644Z,94388.7
2019-05-17T12:53:43.793Z,94383.5
2019-05-17T12:54:45.968Z,94394.4
2019-05-17T12:55:48.134Z,94392.9
2019-05-17T12:56:50.564Z,94382.1
2019-05-17T12:57:53.007Z,94389.3
2019-05-17T12:58:55.158Z,94387
2019-05-17T12:59:58.201Z,94399
2019-05-17T13:01:00.679Z,94392.9
2019-05-17T13:02:02.998Z,94387.5
2019-05-17T13:03:05.187Z,94382.8
2019-05-17T13:04:07.623Z,94386
2019-05-17T13:05:09.512Z,94386.2
2019-05-17T13:06:11.949Z,94387
2019-05-17T13:07:14.374Z,94381
2019-05-17T13:08:16.515Z,94380.9
2019-05-17T13:09:18.673Z,94380.3
2019-05-17T13:10:20.825Z,94378.2
2019-05-17T13:11:24.102Z,94373.6
2019-05-17T13:12:26.419Z,94371
2019-05-17T13:13:28.976Z,94379
2019-05-17T13:14:31.395Z,94374.6
2019-05-17T13:15:33.824Z,94370.5
2019-05-17T13:16:36.852Z,94374.2
2019-05-17T13:17:38.734Z,94377.5
2019-05-17T13:18:41.163Z,94371.1
2019-05-17T13:19:43.305Z,94373.1
2019-05-17T13:20:45.751Z,94368.1
2019-05-17T13:21:48.181Z,94373.6
2019-05-17T13:22:50.349Z,94376.6
2019-05-17T13:23:52.789Z,94367.9
2019-05-17T13:24:55.791Z,94369.8
2019-05-17T13:25:57.955Z,94372.4
2019-05-17T13:27:00.392Z,94367.4
2019-05-17T13:28:02.945Z,94369.9
2019-05-17T13:29:05.893Z,94372.6
2019-05-17T13:30:08.054Z,94371.3
2019-05-17T13:31:10.653Z,94375.2
2019-05-17T13:32:13.173Z,94372.4
2019-05-17T13:33:15.328Z,94374.9
2019-05-17T13:34:17.494Z,94371.9
2019-05-17T13:35:19.914Z,94375.2
2019-05-17T13:36:22.072Z,94370.8
2019-05-17T13:37:24.262Z,94373.4
2019-05-17T13:38:26.396Z,94372
2019-05-17T13:39:29.011Z,94372.7
2019-05-17T13:41:36.276Z,94373.8
2019-05-17T13:42:38.798Z,94370.5
2019-05-17T13:43:41.496Z,94366.1
2019-05-17T13:44:44.117Z,94366.1
2019-05-17T13:45:46.976Z,94371
2019-05-17T13:46:50.065Z,94369.4
2019-05-17T13:47:52.235Z,94371.3
2019-05-17T13:48:54.669Z,94368.2
2019-05-17T13:49:57.085Z,94370.8
2019-05-17T13:50:59.520Z,94363.2
2019-05-17T13:52:01.677Z,94364.3
2019-05-17T13:53:04.285Z,94366
2019-05-17T13:54:06.904Z,94365.8
2019-05-17T13:55:09.413Z,94369.3
2019-05-17T13:56:11.841Z,94366.6
2019-05-17T13:57:14.314Z,94366.4
2019-05-17T13:58:16.215Z,94361.5
2019-05-17T13:59:18.343Z,94365
2019-05-17T14:00:20.504Z,94365.9
2019-05-17T14:01:22.990Z,94357.6
2019-05-17T14:02:25.184Z,94361.6
2019-05-17T14:03:27.630Z,94358.2
2019-05-17T14:04:30.145Z,94356.2
2019-05-17T14:05:32.317Z,94359.4
2019-05-17T14:06:34.747Z,94361.7
2019-05-17T14:07:37.188Z,94358.2
2019-05-17T14:08:39.634Z,94359
2019-05-17T14:09:41.797Z,94356
2019-05-17T14:10:44.543Z,94357.2
2019-05-17T14:11:47.198Z,94355.5
2019-05-17T14:12:49.542Z,94358.4
2019-05-17T14:13:52.397Z,94353.2
2019-05-17T14:14:54.833Z,94359.7
2019-05-17T14:15:56.904Z,94353.4
2019-05-17T14:16:59.310Z,94353.5
2019-05-17T14:18:01.735Z,94363.2
2019-05-17T14:19:03.939Z,94354.8
2019-05-17T14:20:06.123Z,94362.7
2019-05-17T14:21:08.592Z,94353.1
2019-05-17T14:22:10.745Z,94357.7
2019-05-17T14:23:13.161Z,94353.2
2019-05-17T14:24:15.381Z,94358.1
2019-05-17T14:25:18.632Z,94367.1
2019-05-17T14:26:21.057Z,94355.2
2019-05-17T14:27:23.673Z,94351.6
2019-05-17T14:28:26.135Z,94353.4
2019-05-17T14:29:28.399Z,94352.4
2019-05-17T14:30:30.845Z,94357
2019-05-17T14:31:32.917Z,94359.4
2019-05-17T14:32:35.075Z,94364
2019-05-17T14:33:37.502Z,94361
2019-05-17T14:34:40.284Z,94358.8
2019-05-17T14:35:42.504Z,94359.6
2019-05-17T14:36:44.937Z,94362.8
2019-05-17T14:37:47.361Z,94364.5
2019-05-17T14:38:49.824Z,94362.8
2019-05-17T14:39:52.340Z,94360.8
2019-05-17T14:41:59.328Z,94361.4
2019-05-17T14:43:01.481Z,94365.8
2019-05-17T14:44:03.641Z,94364.4
2019-05-17T14:45:06.151Z,94367.8
2019-05-17T14:46:08.366Z,94362.5
2019-05-17T14:47:10.813Z,94373.3
2019-05-17T14:48:13.400Z,94364
2019-05-17T14:49:15.709Z,94365
2019-05-17T14:50:18.209Z,94356.5
2019-05-17T14:51:20.665Z,94349.3
2019-05-17T14:52:23.166Z,94349.3
2019-05-17T14:53:25.606Z,94351.3
2019-05-17T14:54:28.032Z,94350.5
2019-05-17T14:55:30.453Z,94353.1
2019-05-17T14:56:32.887Z,94350.4
2019-05-17T14:57:35.317Z,94349.6
2019-05-17T14:58:37.751Z,94346.8
2019-05-17T14:59:40.184Z,94346
2019-05-17T15:00:42.041Z,94342.1
2019-05-17T15:01:44.470Z,94352.1
2019-05-17T15:02:46.634Z,94351
2019-05-17T15:03:48.784Z,94352.9
2019-05-17T15:04:51.611Z,94348.9
2019-05-17T15:05:54.043Z,94346
2019-05-17T15:06:56.508Z,94348.5
2019-05-17T15:07:58.676Z,94345.9
2019-05-17T15:09:01.121Z,94346.4
2019-05-17T15:10:03.653Z,94349.1
2019-05-17T15:11:05.801Z,94348
2019-05-17T15:12:08.233Z,94344.1